createdAt,value
2022-08-03T00:00:26.384Z,95.83
2022-08-03T00:02:53.568Z,96.06
2022-08-03T00:05:20.559Z,96.06
2022-08-03T00:07:48.607Z,96.09
2022-08-03T00:10:16.775Z,96.12
2022-08-03T00:12:43.557Z,96.12
2022-08-03T00:15:11.523Z,96.12
2022-08-03T00:17:52.860Z,96.26
2022-08-03T00:20:23.171Z,96.25
2022-08-03T00:22:50.144Z,96.42
2022-08-03T00:25:17.010Z,96.39
2022-08-03T00:27:43.715Z,96.54
2022-08-03T00:30:10.765Z,96.53
2022-08-03T00:32:40.046Z,96.59
2022-08-03T00:35:20.448Z,96.55
2022-08-03T00:37:58.783Z,96.65
2022-08-03T00:40:25.673Z,96.79
2022-08-03T00:42:56.942Z,96.83
2022-08-03T00:45:25.374Z,96.89
2022-08-03T00:47:52.326Z,96.74
2022-08-03T00:50:19.637Z,96.78
2022-08-03T00:52:46.593Z,96.73
2022-08-03T00:55:13.343Z,96.75
2022-08-03T00:57:40.106Z,96.79
2022-08-03T01:00:07.702Z,96.65
2022-08-03T01:02:34.422Z,96.58
2022-08-03T01:05:01.186Z,96.49
2022-08-03T01:07:33.035Z,96.69
2022-08-03T01:10:31.574Z,96.54
2022-08-03T01:14:01.675Z,96.50
2022-08-03T01:16:09.187Z,96.50
2022-08-03T01:18:59.803Z,96.54
2022-08-03T01:22:09.267Z,96.47
2022-08-03T01:24:48.153Z,96.46
2022-08-03T01:27:31.754Z,96.43
2022-08-03T01:30:08.734Z,96.44
2022-08-03T01:32:58.629Z,96.42
2022-08-03T01:36:16.331Z,96.52
2022-08-03T01:38:55.752Z,96.54
2022-08-03T01:41:26.914Z,96.51
2022-08-03T01:44:26.443Z,96.55
2022-08-03T01:46:40.677Z,96.59
2022-08-03T01:49:15.732Z,96.69
2022-08-03T01:51:58.662Z,96.67
2022-08-03T01:54:29.498Z,96.68
2022-08-03T01:56:57.107Z,96.81
2022-08-03T01:59:23.848Z,96.76
2022-08-03T02:02:28.975Z,96.66
2022-08-03T02:04:37.388Z,96.59
2022-08-03T02:07:04.222Z,96.30
2022-08-03T02:09:31.120Z,96.22
2022-08-03T02:11:57.884Z,96.26
2022-08-03T02:14:24.624Z,96.25
2022-08-03T02:16:51.477Z,96.12
2022-08-03T02:19:18.324Z,96.10
2022-08-03T02:21:56.374Z,96.24
2022-08-03T02:24:28.705Z,96.29
2022-08-03T02:26:55.818Z,96.48
2022-08-03T02:29:40.128Z,96.53
2022-08-03T02:32:13.512Z,96.72
2022-08-03T02:34:41.334Z,96.95
2022-08-03T02:37:08.138Z,96.98
2022-08-03T02:39:35.029Z,97.06
2022-08-03T02:42:05.587Z,97.05
2022-08-03T02:44:33.231Z,97.05
2022-08-03T02:47:05.206Z,97.13
2022-08-03T02:49:42.709Z,97.08
2022-08-03T02:52:18.506Z,97.07
2022-08-03T02:54:45.484Z,97.21
2022-08-03T02:57:12.223Z,97.19
2022-08-03T02:59:38.957Z,97.05
2022-08-03T03:02:05.784Z,97.08
2022-08-03T03:04:33.008Z,96.91
2022-08-03T03:07:01.812Z,96.84
2022-08-03T03:09:40.280Z,96.70
2022-08-03T03:12:08.048Z,96.61
2022-08-03T03:14:35.009Z,96.63
2022-08-03T03:17:01.957Z,96.77
2022-08-03T03:19:29.090Z,96.76
2022-08-03T03:21:55.837Z,96.89
2022-08-03T03:24:22.588Z,96.76
2022-08-03T03:26:49.393Z,96.67
2022-08-03T03:29:16.304Z,96.77
2022-08-03T03:31:43.034Z,96.61
2022-08-03T03:34:09.824Z,96.56
2022-08-03T03:36:37.543Z,96.48
2022-08-03T03:39:15.866Z,96.29
2022-08-03T03:41:43.054Z,96.32
2022-08-03T03:44:09.801Z,96.19
2022-08-03T03:46:37.016Z,96.16
2022-08-03T03:49:05.697Z,96.16
2022-08-03T03:51:32.681Z,96.02
2022-08-03T03:54:00.363Z,95.99
2022-08-03T03:56:27.245Z,95.97
2022-08-03T03:58:54.008Z,96.14
2022-08-03T04:01:20.808Z,96.07
2022-08-03T04:03:47.651Z,96.01
2022-08-03T04:06:32.973Z,95.94
2022-08-03T04:09:20.813Z,96.12
2022-08-03T04:11:52.472Z,95.94
2022-08-03T04:14:20.366Z,95.81
2022-08-03T04:17:07.308Z,95.61
2022-08-03T04:19:40.611Z,95.74
2022-08-03T04:22:10.219Z,95.82
2022-08-03T04:24:46.996Z,95.68
2022-08-03T04:27:15.368Z,95.80
2022-08-03T04:29:48.270Z,95.64
2022-08-03T04:32:16.120Z,95.61
2022-08-03T04:34:43.035Z,95.42
2022-08-03T04:37:15.183Z,95.24
2022-08-03T04:39:42.328Z,95.24
2022-08-03T04:42:09.357Z,95.22
2022-08-03T04:44:37.917Z,95.31
2022-08-03T04:47:04.718Z,95.14
2022-08-03T04:49:31.610Z,94.92
2022-08-03T04:51:58.428Z,94.80
2022-08-03T04:54:25.134Z,94.50
2022-08-03T04:56:51.847Z,94.49
2022-08-03T04:59:18.586Z,94.47
2022-08-03T05:01:45.459Z,94.53
2022-08-03T05:04:12.299Z,94.41
2022-08-03T05:06:41.413Z,94.32
2022-08-03T05:09:15.033Z,94.20
2022-08-03T05:12:01.743Z,94.03
2022-08-03T05:14:28.530Z,93.61
2022-08-03T05:16:55.251Z,93.51
2022-08-03T05:19:21.980Z,93.38
2022-08-03T05:21:52.854Z,92.97
2022-08-03T05:24:19.870Z,93.00
2022-08-03T05:26:46.632Z,93.08
2022-08-03T05:29:13.390Z,93.01
2022-08-03T05:31:40.687Z,92.82
2022-08-03T05:34:08.055Z,92.82
2022-08-03T05:36:34.783Z,92.81
2022-08-03T05:39:02.923Z,92.55
2022-08-03T05:41:37.265Z,92.75
2022-08-03T05:44:04.704Z,92.94
2022-08-03T05:46:31.434Z,93.01
2022-08-03T05:48:58.243Z,93.05
2022-08-03T05:51:25.021Z,93.10
2022-08-03T05:53:52.286Z,93.21
2022-08-03T05:56:22.420Z,93.34
2022-08-03T05:58:49.163Z,93.38
2022-08-03T06:01:16.756Z,93.46
2022-08-03T06:03:44.103Z,93.72
2022-08-03T06:06:11.686Z,93.67
2022-08-03T06:08:38.765Z,93.28
2022-08-03T06:11:05.628Z,92.87
2022-08-03T06:13:32.480Z,92.85
2022-08-03T06:15:59.227Z,92.96
2022-08-03T06:18:26.080Z,92.82
2022-08-03T06:20:53.190Z,92.42
2022-08-03T06:23:20.048Z,92.31
2022-08-03T06:25:47.075Z,91.83
2022-08-03T06:28:51.803Z,91.80
2022-08-03T06:31:06.594Z,91.79
2022-08-03T06:33:48.403Z,91.12
2022-08-03T06:36:20.505Z,90.66
2022-08-03T06:38:47.253Z,90.48
2022-08-03T06:41:14.020Z,90.17
2022-08-03T06:44:03.758Z,89.48
2022-08-03T06:46:27.526Z,88.90
2022-08-03T06:48:55.882Z,88.08
2022-08-03T06:52:04.476Z,87.25
2022-08-03T06:54:10.958Z,87.26
2022-08-03T06:56:37.804Z,87.04
2022-08-03T06:59:04.552Z,87.16
2022-08-03T07:01:31.414Z,86.92
2022-08-03T07:03:58.206Z,86.57
2022-08-03T07:06:24.949Z,85.98
2022-08-03T07:08:54.514Z,85.90
2022-08-03T07:11:23.297Z,85.49
2022-08-03T07:13:50.105Z,85.66
2022-08-03T07:16:17.032Z,85.64
2022-08-03T07:18:44.539Z,85.66
2022-08-03T07:21:12.870Z,86.01
2022-08-03T07:23:39.666Z,85.63
2022-08-03T07:26:06.431Z,85.17
2022-08-03T07:28:33.234Z,84.42
2022-08-03T07:31:00.090Z,84.21
2022-08-03T07:33:26.814Z,83.78
2022-08-03T07:35:53.567Z,83.89
2022-08-03T07:38:21.166Z,83.57
2022-08-03T07:40:48.203Z,83.07
2022-08-03T07:43:14.959Z,83.09
2022-08-03T07:45:41.828Z,83.17
2022-08-03T07:48:12.200Z,83.42
2022-08-03T07:50:39.431Z,83.08
2022-08-03T07:53:06.252Z,82.80
2022-08-03T07:55:33.095Z,82.84
2022-08-03T07:58:04.054Z,82.59
2022-08-03T08:00:30.984Z,82.65
2022-08-03T08:02:57.884Z,82.23
2022-08-03T08:05:24.675Z,82.04
2022-08-03T08:07:51.866Z,82.55
2022-08-03T08:10:18.822Z,81.58
2022-08-03T08:12:45.656Z,81.42
2022-08-03T08:15:12.404Z,80.79
2022-08-03T08:17:49.474Z,80.36
2022-08-03T08:20:23.866Z,79.82
2022-08-03T08:23:00.281Z,79.30
2022-08-03T08:25:29.120Z,79.37
2022-08-03T08:28:29.926Z,79.05
2022-08-03T08:30:42.890Z,78.50
2022-08-03T08:33:22.155Z,78.65
2022-08-03T08:35:51.596Z,78.57
2022-08-03T08:38:18.407Z,78.50
2022-08-03T08:40:45.330Z,78.40
2022-08-03T08:43:12.096Z,77.70
2022-08-03T08:45:38.839Z,77.33
2022-08-03T08:48:08.370Z,77.12
2022-08-03T08:50:35.294Z,77.00
2022-08-03T08:53:03.165Z,76.74
2022-08-03T08:55:30.167Z,76.46
2022-08-03T08:58:20.772Z,75.82
2022-08-03T09:00:48.579Z,75.49
2022-08-03T09:03:29.398Z,74.62
2022-08-03T09:05:59.604Z,74.50
2022-08-03T09:08:26.384Z,74.25
2022-08-03T09:10:53.112Z,73.91
2022-08-03T09:13:19.849Z,73.97
2022-08-03T09:16:00.707Z,74.01
2022-08-03T09:18:32.834Z,73.96
2022-08-03T09:21:30.715Z,73.91
2022-08-03T09:24:04.262Z,74.04
2022-08-03T09:26:36.259Z,73.90
2022-08-03T09:29:13.118Z,73.65
2022-08-03T09:31:45.003Z,73.22
2022-08-03T09:34:13.776Z,72.94
2022-08-03T09:36:50.645Z,72.26
2022-08-03T09:39:37.551Z,72.04
2022-08-03T09:42:19.002Z,72.07
2022-08-03T09:44:51.537Z,72.10
2022-08-03T09:47:29.618Z,71.82
2022-08-03T09:50:09.312Z,71.83
2022-08-03T09:52:51.798Z,71.99
2022-08-03T09:55:23.569Z,72.17
2022-08-03T09:58:11.345Z,72.31
2022-08-03T10:01:05.845Z,72.22
2022-08-03T10:04:03.081Z,72.92
2022-08-03T10:06:25.489Z,75.18
2022-08-03T10:09:10.071Z,76.38
2022-08-03T10:11:41.689Z,77.71
2022-08-03T10:14:11.565Z,78.47
2022-08-03T10:16:39.246Z,79.39
2022-08-03T10:19:07.358Z,80.63
2022-08-03T10:21:35.254Z,81.61
2022-08-03T10:24:07.111Z,82.23
2022-08-03T10:26:34.980Z,82.81
2022-08-03T10:29:04.043Z,83.37
2022-08-03T10:31:34.964Z,83.69
2022-08-03T10:34:02.115Z,84.35
2022-08-03T10:36:30.791Z,84.90
2022-08-03T10:38:59.364Z,85.67
2022-08-03T10:41:27.019Z,85.77
2022-08-03T10:43:59.206Z,86.17
2022-08-03T10:46:26.016Z,87.09
2022-08-03T10:48:53.888Z,87.07
2022-08-03T10:51:20.673Z,86.39
2022-08-03T10:53:55.074Z,86.13
2022-08-03T10:56:53.462Z,84.97
2022-08-03T10:59:46.381Z,84.47
2022-08-03T11:02:14.340Z,83.57
2022-08-03T11:04:41.227Z,82.44
2022-08-03T11:07:24.247Z,82.00
2022-08-03T11:09:51.078Z,82.19
2022-08-03T11:12:31.198Z,81.88
2022-08-03T11:15:06.401Z,81.88
2022-08-03T11:17:46.321Z,81.36
2022-08-03T11:20:44.185Z,80.28
2022-08-03T11:23:10.954Z,79.39
2022-08-03T11:26:15.878Z,77.88
2022-08-03T11:28:44.634Z,76.67
2022-08-03T11:34:12.075Z,75.33
2022-08-03T11:37:16.742Z,75.26
2022-08-03T11:39:45.935Z,74.80
2022-08-03T11:42:25.561Z,73.95
2022-08-03T11:44:59.163Z,73.89
2022-08-03T11:47:27.351Z,74.46
2022-08-03T11:49:55.891Z,74.05
2022-08-03T11:52:26.910Z,73.55
2022-08-03T11:54:56.655Z,72.78
2022-08-03T11:59:02.642Z,71.58
2022-08-03T12:00:29.573Z,70.25
2022-08-03T12:03:02.927Z,70.64
2022-08-03T12:06:03.135Z,71.15
2022-08-03T12:08:32.923Z,70.89
2022-08-03T12:11:01.367Z,69.96
2022-08-03T12:14:44.262Z,70.00
2022-08-03T12:16:19.936Z,70.25
2022-08-03T12:18:58.435Z,69.70
2022-08-03T12:21:25.301Z,68.74
2022-08-03T12:23:56.847Z,68.99
2022-08-03T12:26:23.580Z,69.52
2022-08-03T12:28:50.408Z,69.80
2022-08-03T12:31:17.217Z,70.45
2022-08-03T12:34:06.477Z,69.79
2022-08-03T12:36:34.340Z,71.18
2022-08-03T12:39:08.340Z,72.11
2022-08-03T12:41:36.568Z,72.56
2022-08-03T12:44:04.399Z,73.66
2022-08-03T12:46:33.272Z,74.49
2022-08-03T12:49:15.480Z,75.14
2022-08-03T12:51:42.385Z,75.82
2022-08-03T12:54:09.906Z,75.99
2022-08-03T12:56:36.699Z,76.77
2022-08-03T12:59:32.159Z,77.28
2022-08-03T13:02:01.695Z,77.68
2022-08-03T13:04:33.628Z,78.23
2022-08-03T13:07:14.146Z,78.07
2022-08-03T13:09:48.546Z,78.05
2022-08-03T13:12:16.786Z,77.49
2022-08-03T13:14:44.567Z,77.12
2022-08-03T13:17:11.676Z,77.23
2022-08-03T13:19:38.976Z,76.62
2022-08-03T13:22:19.343Z,76.12
2022-08-03T13:24:47.603Z,75.36
2022-08-03T13:28:02.117Z,74.53
2022-08-03T13:30:01.362Z,73.83
2022-08-03T13:32:28.194Z,73.89
2022-08-03T13:34:54.973Z,72.91
2022-08-03T13:37:22.072Z,71.50
2022-08-03T13:39:59.263Z,70.91
2022-08-03T13:42:34.541Z,70.10
2022-08-03T13:45:01.621Z,69.67
2022-08-03T13:47:28.537Z,70.42
2022-08-03T13:50:01.566Z,72.09
2022-08-03T13:53:31.967Z,74.34
2022-08-03T13:55:58.732Z,74.99
2022-08-03T13:58:25.556Z,76.14
2022-08-03T14:00:52.316Z,76.83
2022-08-03T14:03:19.054Z,77.64
2022-08-03T14:05:45.919Z,78.42
2022-08-03T14:08:12.859Z,79.59
2022-08-03T14:10:41.579Z,80.83
2022-08-03T14:13:09.004Z,81.78
2022-08-03T14:15:37.867Z,82.17
2022-08-03T14:18:06.695Z,82.89
2022-08-03T14:20:38.960Z,83.53
2022-08-03T14:23:15.592Z,84.17
2022-08-03T14:25:44.335Z,84.67
2022-08-03T14:28:22.911Z,85.24
2022-08-03T14:30:53.891Z,85.86
2022-08-03T14:33:20.692Z,86.37
2022-08-03T14:35:47.788Z,87.05
2022-08-03T14:38:14.712Z,87.67
2022-08-03T14:40:41.590Z,88.11
2022-08-03T14:43:08.322Z,88.43
2022-08-03T14:45:35.072Z,88.45
2022-08-03T14:50:33.785Z,88.59
2022-08-03T14:50:51.703Z,88.73
2022-08-03T14:53:19.358Z,88.90
2022-08-03T14:55:49.814Z,89.14
2022-08-03T14:58:21.970Z,89.32
2022-08-03T15:00:50.033Z,89.52
2022-08-03T15:03:20.259Z,89.62
2022-08-03T15:05:47.390Z,89.79
2022-08-03T15:08:14.169Z,89.85
2022-08-03T15:10:44.086Z,89.89
2022-08-03T15:13:12.276Z,89.89
2022-08-03T15:15:39.107Z,89.71
2022-08-03T15:18:05.960Z,89.40
2022-08-03T15:20:43.827Z,89.14
2022-08-03T15:23:12.016Z,88.71
2022-08-03T15:26:28.360Z,88.54
2022-08-03T15:28:25.574Z,88.24
2022-08-03T15:30:52.663Z,88.12
2022-08-03T15:33:19.501Z,87.88
2022-08-03T15:35:47.457Z,87.68
2022-08-03T15:38:14.366Z,87.48
2022-08-03T15:40:41.176Z,87.26
2022-08-03T15:43:08.070Z,87.04
2022-08-03T15:45:36.230Z,86.98
2022-08-03T15:48:05.730Z,87.07
2022-08-03T15:50:32.551Z,87.28
2022-08-03T15:52:59.345Z,87.42
2022-08-03T15:55:26.143Z,87.51
2022-08-03T15:59:11.279Z,87.53
2022-08-03T16:00:40.188Z,87.14
2022-08-03T16:03:06.927Z,87.06
2022-08-03T16:05:33.774Z,87.01
2022-08-03T16:08:04.210Z,86.91
2022-08-03T16:10:31.951Z,86.95
2022-08-03T16:13:00.130Z,86.85
2022-08-03T16:15:27.251Z,86.80
2022-08-03T16:17:54.104Z,86.67
2022-08-03T16:20:31.656Z,86.83
2022-08-03T16:23:10.809Z,86.93
2022-08-03T16:25:42.345Z,87.15
2022-08-03T16:28:13.808Z,87.26
2022-08-03T16:30:44.967Z,87.34
2022-08-03T16:33:16.974Z,87.45
2022-08-03T16:35:45.976Z,87.48
2022-08-03T16:38:18.613Z,87.52
2022-08-03T16:40:47.423Z,87.69
2022-08-03T16:43:18.694Z,87.72
2022-08-03T16:45:46.541Z,87.88
2022-08-03T16:48:13.799Z,87.86
2022-08-03T16:50:40.590Z,87.75
2022-08-03T16:53:09.327Z,87.69
2022-08-03T16:55:48.836Z,87.72
2022-08-03T16:58:24.464Z,87.73
2022-08-03T17:01:21.088Z,87.87
2022-08-03T17:04:02.046Z,88.05
2022-08-03T17:06:34.474Z,88.30
2022-08-03T17:09:03.555Z,88.49
2022-08-03T17:11:35.256Z,88.68
2022-08-03T17:14:07.714Z,88.74
2022-08-03T17:16:38.342Z,88.90
2022-08-03T17:19:06.492Z,89.06
2022-08-03T17:21:39.311Z,89.17
2022-08-03T17:24:14.598Z,89.25
2022-08-03T17:26:49.929Z,89.35
2022-08-03T17:29:18.253Z,89.40
2022-08-03T17:31:49.543Z,89.45
2022-08-03T17:34:17.133Z,89.53
2022-08-03T17:39:55.512Z,89.70
2022-08-03T17:42:30.068Z,89.86
2022-08-03T17:44:58.507Z,89.96
2022-08-03T17:47:41.886Z,90.04
2022-08-03T17:50:24.191Z,90.16
2022-08-03T17:53:23.657Z,90.18
2022-08-03T17:55:59.694Z,90.32
2022-08-03T17:58:59.144Z,90.32
2022-08-03T18:02:00.399Z,90.31
2022-08-03T18:04:33.774Z,90.35
2022-08-03T18:07:11.584Z,90.43
2022-08-03T18:10:03.864Z,90.44
2022-08-03T18:12:28.959Z,90.42
2022-08-03T18:15:01.037Z,90.38
2022-08-03T18:17:55.964Z,90.36
2022-08-03T18:20:32.138Z,90.29
2022-08-03T18:23:05.624Z,90.33
2022-08-03T18:25:43.062Z,90.37
2022-08-03T18:28:16.435Z,90.29
2022-08-03T18:30:53.596Z,90.33
2022-08-03T18:34:19.530Z,90.37
2022-08-03T18:36:17.762Z,90.31
2022-08-03T18:39:01.651Z,90.35
2022-08-03T18:41:32.257Z,90.33
2022-08-03T18:44:52.570Z,90.29
2022-08-03T18:47:25.284Z,90.16
2022-08-03T18:50:01.663Z,90.21
2022-08-03T18:52:44.044Z,90.31
2022-08-03T18:55:33.086Z,90.16
2022-08-03T18:58:02.363Z,90.24
2022-08-03T19:00:42.613Z,90.22
2022-08-03T19:03:23.417Z,90.28
2022-08-03T19:06:02.798Z,90.29
2022-08-03T19:08:42.425Z,90.38
2022-08-03T19:11:10.937Z,90.45
2022-08-03T19:13:50.322Z,90.56
2022-08-03T19:16:22.409Z,90.56
2022-08-03T19:18:52.842Z,90.64
2022-08-03T19:21:19.683Z,90.57
2022-08-03T19:23:49.315Z,90.56
2022-08-03T19:26:30.335Z,90.55
2022-08-03T19:28:58.383Z,90.55
2022-08-03T19:31:31.044Z,90.62
2022-08-03T19:33:59.880Z,90.66
2022-08-03T19:36:28.710Z,90.73
2022-08-03T19:38:56.395Z,90.66
2022-08-03T19:41:31.176Z,90.68
2022-08-03T19:44:11.491Z,90.66
2022-08-03T19:46:52.122Z,90.74
2022-08-03T19:49:19.884Z,90.81
2022-08-03T19:52:01.769Z,90.85
2022-08-03T19:54:45.639Z,90.96
2022-08-03T19:57:20.499Z,91.13
2022-08-03T19:59:50.116Z,91.13
2022-08-03T20:02:26.189Z,91.23
2022-08-03T20:04:57.606Z,91.23
2022-08-03T20:07:26.809Z,91.25
2022-08-03T20:09:56.046Z,91.39
2022-08-03T20:12:28.123Z,91.30
2022-08-03T20:14:59.924Z,91.36
2022-08-03T20:17:56.265Z,91.42
2022-08-03T20:20:18.548Z,91.42
2022-08-03T20:22:45.469Z,91.48
2022-08-03T20:25:12.952Z,91.62
2022-08-03T20:28:06.990Z,91.64
2022-08-03T20:30:34.444Z,91.87
2022-08-03T20:33:01.185Z,91.81
2022-08-03T20:35:28.825Z,91.82
2022-08-03T20:37:56.075Z,91.74
2022-08-03T20:40:27.529Z,91.69
2022-08-03T20:42:55.792Z,91.70
2022-08-03T20:45:59.800Z,91.81
2022-08-03T20:48:09.832Z,91.75
2022-08-03T20:50:38.226Z,91.81
2022-08-03T20:53:06.342Z,91.79
2022-08-03T20:55:47.752Z,91.74
2022-08-03T20:58:20.402Z,91.78
2022-08-03T21:00:51.561Z,91.81
2022-08-03T21:03:18.914Z,91.85
2022-08-03T21:05:51.074Z,91.99
2022-08-03T21:08:19.089Z,92.08
2022-08-03T21:10:45.868Z,92.07
2022-08-03T21:16:11.247Z,92.07
2022-08-03T21:18:38.640Z,92.00
2022-08-03T21:21:05.366Z,92.10
2022-08-03T21:23:40.095Z,91.96
2022-08-03T21:26:15.178Z,92.06
2022-08-03T21:28:41.904Z,92.08
2022-08-03T21:31:09.280Z,92.15
2022-08-03T21:33:36.008Z,92.14
2022-08-03T21:36:03.608Z,92.14
2022-08-03T21:38:30.596Z,92.27
2022-08-03T21:40:57.494Z,92.38
2022-08-03T21:43:24.324Z,92.41
2022-08-03T21:46:09.464Z,92.54
2022-08-03T21:48:37.584Z,92.61
2022-08-03T21:51:05.643Z,92.66
2022-08-03T21:54:03.702Z,92.78
2022-08-03T21:56:21.117Z,92.85
2022-08-03T21:58:56.156Z,92.98
2022-08-03T22:01:25.272Z,93.05
2022-08-03T22:03:54.311Z,93.09
2022-08-03T22:06:22.220Z,93.26
2022-08-03T22:08:53.938Z,93.40
2022-08-03T22:11:20.846Z,93.53
2022-08-03T22:13:49.679Z,93.68
2022-08-03T22:16:16.635Z,93.87
2022-08-03T22:18:45.270Z,94.08
2022-08-03T22:21:16.003Z,94.42
2022-08-03T22:23:55.423Z,94.60
2022-08-03T22:26:34.621Z,94.75
2022-08-03T22:29:01.907Z,94.95
2022-08-03T22:31:56.969Z,95.00
2022-08-03T22:34:15.603Z,95.03
2022-08-03T22:36:42.492Z,94.94
2022-08-03T22:39:09.328Z,94.98
2022-08-03T22:41:36.217Z,95.04
2022-08-03T22:44:04.666Z,95.03
2022-08-03T22:46:31.663Z,95.01
2022-08-03T22:48:58.555Z,95.17
2022-08-03T22:51:25.474Z,95.22
2022-08-03T22:53:52.435Z,95.29
2022-08-03T22:56:19.293Z,95.17
2022-08-03T22:58:46.047Z,95.17
2022-08-03T23:01:12.851Z,95.26
2022-08-03T23:03:58.974Z,95.22
2022-08-03T23:06:28.143Z,95.20
2022-08-03T23:08:54.912Z,95.26
2022-08-03T23:11:21.659Z,95.24
2022-08-03T23:13:50.012Z,95.45
2022-08-03T23:16:16.743Z,95.39
2022-08-03T23:18:56.170Z,95.21
2022-08-03T23:21:53.198Z,95.31
2022-08-03T23:24:17.666Z,95.29
2022-08-03T23:26:56.328Z,95.34
2022-08-03T23:29:23.034Z,95.35
2022-08-03T23:31:49.772Z,95.30
2022-08-03T23:34:35.177Z,95.18
2022-08-03T23:37:01.983Z,95.27
2022-08-03T23:39:29.413Z,95.50
2022-08-03T23:42:02.987Z,95.34
2022-08-03T23:44:32.801Z,95.42
2022-08-03T23:46:59.600Z,95.30
2022-08-03T23:49:26.345Z,95.22
2022-08-03T23:52:10.736Z,95.24
2022-08-03T23:54:44.561Z,95.22
2022-08-03T23:57:24.930Z,95.30
